createdAt,value
2022-08-05T00:02:27.173Z,96035.25
2022-08-05T00:04:56.059Z,96047.53
2022-08-05T00:07:59.799Z,96039.31
2022-08-05T00:10:10.083Z,96043.91
2022-08-05T00:12:56.171Z,96047.28
2022-08-05T00:15:55.606Z,96043.84
2022-08-05T00:18:22.452Z,96049.97
2022-08-05T00:20:50.587Z,96037.78
2022-08-05T00:23:44.741Z,96037.41
2022-08-05T00:26:07.900Z,96045.03
2022-08-05T00:28:35.279Z,96038.31
2022-08-05T00:31:04.470Z,96041.75
2022-08-05T00:34:55.795Z,96035.28
2022-08-05T00:37:11.345Z,96044.03
2022-08-05T00:39:05.723Z,96040.16
2022-08-05T00:41:55.020Z,96037.06
2022-08-05T00:44:23.474Z,96032.94
2022-08-05T00:47:01.528Z,96028.31
2022-08-05T00:49:32.319Z,96024.97
2022-08-05T00:51:59.900Z,96023.72
2022-08-05T00:54:28.065Z,96027.56
2022-08-05T00:56:56.756Z,96021.19
2022-08-05T00:59:23.264Z,96032.00
2022-08-05T01:01:49.782Z,96026.88
2022-08-05T01:04:20.267Z,96023.50
2022-08-05T01:06:53.377Z,96022.41
2022-08-05T01:09:21.705Z,96028.06
2022-08-05T01:11:52.197Z,96020.41
2022-08-05T01:14:44.976Z,96022.69
2022-08-05T01:17:26.811Z,96017.22
2022-08-05T01:20:05.327Z,96007.78
2022-08-05T01:22:57.188Z,96014.84
2022-08-05T01:26:09.757Z,96016.09
2022-08-05T01:29:05.178Z,96018.16
2022-08-05T01:31:45.191Z,96011.84
2022-08-05T01:34:21.067Z,96012.53
2022-08-05T01:36:53.672Z,96011.03
2022-08-05T01:39:45.827Z,96010.72
2022-08-05T01:42:13.700Z,96009.94
2022-08-05T01:44:43.232Z,96009.38
2022-08-05T01:47:14.901Z,96007.72
2022-08-05T01:50:01.907Z,96015.13
2022-08-05T01:52:31.609Z,96015.94
2022-08-05T01:55:04.569Z,96011.81
2022-08-05T01:58:10.383Z,96016.84
2022-08-05T02:00:30.574Z,96013.06
2022-08-05T02:03:06.878Z,96015.25
2022-08-05T02:05:53.429Z,96006.03
2022-08-05T02:08:30.877Z,96011.59
2022-08-05T02:11:23.628Z,96009.28
2022-08-05T02:13:55.202Z,96014.78
2022-08-05T02:16:27.652Z,96012.25
2022-08-05T02:19:47.571Z,96007.78
2022-08-05T02:22:28.804Z,96014.28
2022-08-05T02:25:05.008Z,96017.72
2022-08-05T02:27:59.461Z,96013.47
2022-08-05T02:30:26.796Z,96007.63
2022-08-05T02:32:55.926Z,96006.63
2022-08-05T02:35:27.976Z,96006.41
2022-08-05T02:38:02.381Z,96009.06
2022-08-05T02:40:29.999Z,95999.94
2022-08-05T02:42:59.071Z,96003.50
2022-08-05T02:45:28.542Z,96002.06
2022-08-05T02:48:15.970Z,95994.88
2022-08-05T02:50:47.186Z,95994.94
2022-08-05T02:53:18.600Z,95994.94
2022-08-05T02:55:54.729Z,95991.25
2022-08-05T02:58:27.280Z,95993.09
2022-08-05T03:00:56.560Z,95995.19
2022-08-05T03:03:23.848Z,95991.00
2022-08-05T03:06:54.921Z,95993.59
2022-08-05T03:08:42.587Z,95998.25
2022-08-05T03:11:55.323Z,95998.94
2022-08-05T03:14:04.955Z,95997.72
2022-08-05T03:16:35.736Z,95996.59
2022-08-05T03:19:06.492Z,96000.44
2022-08-05T03:21:49.358Z,95996.03
2022-08-05T03:24:29.234Z,95990.78
2022-08-05T03:26:58.801Z,95983.19
2022-08-05T03:29:45.519Z,95997.72
2022-08-05T03:32:14.395Z,95994.22
2022-08-05T03:34:41.824Z,95990.78
2022-08-05T03:37:08.723Z,95992.78
2022-08-05T03:39:47.351Z,95995.09
2022-08-05T03:42:24.130Z,95996.31
2022-08-05T03:44:55.274Z,95986.50
2022-08-05T03:47:24.200Z,95994.75
2022-08-05T03:49:52.484Z,95988.00
2022-08-05T03:52:49.156Z,95989.94
2022-08-05T03:56:00.891Z,95996.16
2022-08-05T03:58:01.207Z,95991.16
2022-08-05T04:00:31.482Z,95991.81
2022-08-05T04:03:03.355Z,95998.28
2022-08-05T04:05:34.556Z,95993.66
2022-08-05T04:08:14.640Z,96003.97
2022-08-05T04:10:54.530Z,95996.97
2022-08-05T04:13:21.774Z,95993.47
2022-08-05T04:16:03.292Z,95987.72
2022-08-05T04:18:32.300Z,95988.41
2022-08-05T04:21:01.605Z,95998.94
2022-08-05T04:24:05.546Z,95996.59
2022-08-05T04:26:17.488Z,95995.97
2022-08-05T04:28:50.728Z,95985.19
2022-08-05T04:31:18.104Z,95992.03
2022-08-05T04:34:18.874Z,95989.16
2022-08-05T04:36:45.128Z,95991.56
2022-08-05T04:39:12.952Z,95993.09
2022-08-05T04:41:39.482Z,95992.78
2022-08-05T04:44:09.655Z,95983.50
2022-08-05T04:46:37.082Z,95988.16
2022-08-05T04:49:03.628Z,95993.88
2022-08-05T04:51:30.595Z,95987.72
2022-08-05T04:53:57.358Z,95974.59
2022-08-05T04:56:34.342Z,95988.47
2022-08-05T04:59:33.595Z,95987.03
2022-08-05T05:02:06.761Z,95992.66
2022-08-05T05:04:35.040Z,95994.38
2022-08-05T05:07:04.723Z,95988.63
2022-08-05T05:09:37.389Z,95982.66
2022-08-05T05:12:05.118Z,95982.16
2022-08-05T05:14:32.837Z,95982.63
2022-08-05T05:17:03.562Z,95985.91
2022-08-05T05:19:39.579Z,95986.09
2022-08-05T05:22:24.169Z,95990.94
2022-08-05T05:24:57.899Z,96001.84
2022-08-05T05:27:44.137Z,96010.31
2022-08-05T05:30:15.718Z,96001.03
2022-08-05T05:32:55.872Z,96012.06
2022-08-05T05:35:23.035Z,96019.97
2022-08-05T05:37:59.810Z,96027.13
2022-08-05T05:40:28.595Z,96027.34
2022-08-05T05:42:55.449Z,96041.97
2022-08-05T05:45:23.247Z,96038.19
2022-08-05T05:48:07.007Z,96042.91
2022-08-05T05:50:41.157Z,96046.09
2022-08-05T05:53:22.471Z,96052.16
2022-08-05T05:55:51.756Z,96039.41
2022-08-05T05:58:31.762Z,96035.44
2022-08-05T06:01:12.376Z,96047.56
2022-08-05T06:04:02.039Z,96047.88
2022-08-05T06:06:31.094Z,96049.25
2022-08-05T06:08:59.722Z,96046.44
2022-08-05T06:11:26.262Z,96054.28
2022-08-05T06:13:55.935Z,96058.00
2022-08-05T06:16:29.028Z,96059.00
2022-08-05T06:19:00.050Z,96068.00
2022-08-05T06:21:36.096Z,96078.91
2022-08-05T06:24:06.081Z,96084.09
2022-08-05T06:26:37.775Z,96088.84
2022-08-05T06:29:06.472Z,96082.13
2022-08-05T06:31:51.453Z,96078.38
2022-08-05T06:34:19.905Z,96083.66
2022-08-05T06:36:57.637Z,96079.84
2022-08-05T06:39:27.183Z,96073.03
2022-08-05T06:41:59.064Z,96073.09
2022-08-05T06:44:26.101Z,96073.50
2022-08-05T06:46:52.764Z,96078.91
2022-08-05T06:49:21.414Z,96077.84
2022-08-05T06:52:07.558Z,96072.44
2022-08-05T06:54:54.037Z,96076.94
2022-08-05T06:58:03.811Z,96083.19
2022-08-05T07:00:07.758Z,96081.19
2022-08-05T07:02:43.539Z,96079.38
2022-08-05T07:05:14.217Z,96071.59
2022-08-05T07:07:48.767Z,96079.31
2022-08-05T07:10:16.242Z,96073.47
2022-08-05T07:13:02.113Z,96079.13
2022-08-05T07:16:01.449Z,96076.16
2022-08-05T07:18:31.623Z,96069.38
2022-08-05T07:20:58.619Z,96072.00
2022-08-05T07:23:31.399Z,96076.25
2022-08-05T07:25:57.857Z,96082.78
2022-08-05T07:28:25.228Z,96077.88
2022-08-05T07:30:54.762Z,96078.03
2022-08-05T07:33:37.268Z,96077.38
2022-08-05T07:36:20.780Z,96087.47
2022-08-05T07:38:49.048Z,96079.63
2022-08-05T07:42:13.130Z,96082.31
2022-08-05T07:44:18.603Z,96087.03
2022-08-05T07:46:49.191Z,96088.94
2022-08-05T07:49:16.561Z,96086.63
2022-08-05T07:51:53.186Z,96084.00
2022-08-05T07:54:26.552Z,96084.63
2022-08-05T07:57:02.021Z,96093.06
2022-08-05T07:59:43.354Z,96082.38
2022-08-05T08:02:16.745Z,96085.66
2022-08-05T08:04:47.564Z,96084.28
2022-08-05T08:07:15.317Z,96088.94
2022-08-05T08:09:42.460Z,96093.47
2022-08-05T08:12:20.234Z,96081.88
2022-08-05T08:14:55.826Z,96087.97
2022-08-05T08:17:23.331Z,96090.03
2022-08-05T08:20:10.450Z,96085.00
2022-08-05T08:22:36.762Z,96079.69
2022-08-05T08:25:16.479Z,96088.94
2022-08-05T08:27:47.447Z,96096.47
2022-08-05T08:30:29.448Z,96093.91
2022-08-05T08:33:02.420Z,96090.81
2022-08-05T08:35:34.849Z,96090.19
2022-08-05T08:38:07.398Z,96080.22
2022-08-05T08:40:35.346Z,96092.13
2022-08-05T08:45:16.519Z,96086.84
2022-08-05T08:45:54.038Z,96083.72
2022-08-05T08:48:42.895Z,96084.75
2022-08-05T08:52:02.070Z,96092.69
2022-08-05T08:53:55.451Z,96085.13
2022-08-05T08:56:23.587Z,96087.81
2022-08-05T08:58:53.981Z,96094.28
2022-08-05T09:01:20.869Z,96091.19
2022-08-05T09:03:57.235Z,96111.59
2022-08-05T09:06:29.147Z,96113.91
2022-08-05T09:08:58.535Z,96114.53
2022-08-05T09:11:51.201Z,96126.13
2022-08-05T09:14:58.770Z,96111.50
2022-08-05T09:17:05.086Z,96120.22
2022-08-05T09:19:36.842Z,96121.38
2022-08-05T09:22:31.711Z,96127.78
2022-08-05T09:25:13.824Z,96136.41
2022-08-05T09:28:04.125Z,96129.69
2022-08-05T09:30:34.397Z,96136.16
2022-08-05T09:33:04.716Z,96122.50
2022-08-05T09:35:31.554Z,96128.34
2022-08-05T09:38:16.366Z,96143.03
2022-08-05T09:40:52.501Z,96135.19
2022-08-05T09:43:27.106Z,96139.59
2022-08-05T09:46:27.644Z,96136.81
2022-08-05T09:49:07.241Z,96131.78
2022-08-05T09:51:38.225Z,96134.03
2022-08-05T09:54:08.533Z,96124.94
2022-08-05T09:56:38.815Z,96137.28
2022-08-05T09:59:06.769Z,96126.75
2022-08-05T10:01:36.317Z,96125.22
2022-08-05T10:04:16.077Z,96126.56
2022-08-05T10:06:59.329Z,96115.22
2022-08-05T10:09:28.084Z,96128.06
2022-08-05T10:11:56.218Z,96130.28
2022-08-05T10:14:30.229Z,96135.78
2022-08-05T10:17:37.387Z,96133.47
2022-08-05T10:20:04.000Z,96128.00
2022-08-05T10:22:37.954Z,96127.81
2022-08-05T10:25:09.705Z,96140.03
2022-08-05T10:28:13.635Z,96132.69
2022-08-05T10:32:48.752Z,96141.44
2022-08-05T10:33:14.925Z,96150.84
2022-08-05T10:35:44.361Z,96140.50
2022-08-05T10:38:13.033Z,96137.94
2022-08-05T10:40:58.147Z,96133.63
2022-08-05T10:43:47.651Z,96142.19
2022-08-05T10:46:17.336Z,96140.53
2022-08-05T10:48:56.868Z,96136.34
2022-08-05T10:51:29.185Z,96134.00
2022-08-05T10:54:05.666Z,96137.59
2022-08-05T10:56:53.452Z,96136.53
2022-08-05T11:03:24.893Z,96150.28
2022-08-05T11:06:15.196Z,96146.25
2022-08-05T11:12:45.401Z,96154.59
2022-08-05T11:16:00.577Z,96145.22
2022-08-05T11:18:30.130Z,96149.38
2022-08-05T11:21:00.523Z,96143.72
2022-08-05T11:23:33.600Z,96153.03
2022-08-05T11:26:28.772Z,96152.75
2022-08-05T11:29:12.729Z,96149.38
2022-08-05T11:31:58.660Z,96151.84
2022-08-05T11:34:50.832Z,96152.94
2022-08-05T11:38:31.028Z,96138.44
2022-08-05T11:41:12.959Z,96143.09
2022-08-05T11:44:07.317Z,96152.19
2022-08-05T11:47:09.452Z,96147.69
2022-08-05T11:49:26.058Z,96136.81
2022-08-05T11:51:57.392Z,96142.19
2022-08-05T11:54:33.431Z,96138.09
2022-08-05T11:57:07.972Z,96142.81
2022-08-05T11:59:50.845Z,96142.97
2022-08-05T12:02:30.298Z,96142.25
2022-08-05T12:05:00.739Z,96138.53
2022-08-05T12:08:03.491Z,96144.94
2022-08-05T12:10:43.690Z,96147.72
2022-08-05T12:13:15.959Z,96146.47
2022-08-05T12:15:45.094Z,96143.88
2022-08-05T12:18:17.257Z,96143.00
2022-08-05T12:20:44.018Z,96143.28
2022-08-05T12:23:12.514Z,96142.59
2022-08-05T12:25:53.655Z,96136.44
2022-08-05T12:28:34.858Z,96117.38
2022-08-05T12:31:04.225Z,96127.19
2022-08-05T12:33:36.797Z,96131.75
2022-08-05T12:36:08.504Z,96129.50
2022-08-05T12:38:40.119Z,96129.59
2022-08-05T12:41:16.293Z,96132.13
2022-08-05T12:43:56.138Z,96119.69
2022-08-05T12:46:29.745Z,96123.69
2022-08-05T12:49:13.889Z,96114.88
2022-08-05T12:52:10.643Z,96112.88
2022-08-05T12:54:39.932Z,96108.13
2022-08-05T12:57:09.432Z,96100.44
2022-08-05T13:01:56.775Z,96098.22
2022-08-05T13:02:50.995Z,96093.38
2022-08-05T13:05:23.755Z,96097.13
2022-08-05T13:08:00.455Z,96091.06
2022-08-05T13:10:31.120Z,96089.44
2022-08-05T13:12:58.595Z,96092.34
2022-08-05T13:15:35.829Z,96089.94
2022-08-05T13:18:21.069Z,96081.44
2022-08-05T13:20:50.626Z,96084.41
2022-08-05T13:23:18.244Z,96078.28
2022-08-05T13:25:58.935Z,96085.19
2022-08-05T13:28:28.207Z,96073.75
2022-08-05T13:30:55.405Z,96080.91
2022-08-05T13:34:21.834Z,96079.66
2022-08-05T13:36:10.322Z,96071.47
2022-08-05T13:38:42.474Z,96067.44
2022-08-05T13:41:10.942Z,96067.31
2022-08-05T13:43:44.886Z,96057.41
2022-08-05T13:46:43.638Z,96068.25
2022-08-05T13:49:10.206Z,96067.16
2022-08-05T13:51:41.138Z,96081.97
2022-08-05T13:54:13.664Z,96066.28
2022-08-05T13:56:45.199Z,96062.91
2022-08-05T13:59:23.972Z,96067.34
2022-08-05T14:01:56.729Z,96081.50
2022-08-05T14:04:51.152Z,96079.63
2022-08-05T14:07:55.781Z,96086.59
2022-08-05T14:10:13.167Z,96072.53
2022-08-05T14:12:42.625Z,96073.38
2022-08-05T14:16:04.718Z,96073.81
2022-08-05T14:17:59.388Z,96068.47
2022-08-05T14:20:27.621Z,96066.94
2022-08-05T14:22:54.479Z,96069.16
2022-08-05T14:25:22.486Z,96063.81
2022-08-05T14:27:54.394Z,96065.34
2022-08-05T14:30:21.451Z,96065.38
2022-08-05T14:32:48.810Z,96052.06
2022-08-05T14:35:16.306Z,96047.16
2022-08-05T14:37:52.190Z,96046.31
2022-08-05T14:40:21.717Z,96047.41
2022-08-05T14:42:51.015Z,96049.16
2022-08-05T14:45:18.723Z,96046.94
2022-08-05T14:48:03.183Z,96039.00
2022-08-05T14:50:31.657Z,96044.22
2022-08-05T14:52:59.562Z,96031.78
2022-08-05T14:55:39.606Z,96051.91
2022-08-05T14:58:11.691Z,96047.22
2022-08-05T15:00:39.511Z,96040.28
2022-08-05T15:03:25.446Z,96050.19
2022-08-05T15:06:07.656Z,96046.28
2022-08-05T15:09:01.145Z,96051.00
2022-08-05T15:11:24.891Z,96055.19
2022-08-05T15:14:11.312Z,96049.78
2022-08-05T15:16:47.119Z,96052.03
2022-08-05T15:19:14.501Z,96052.78
2022-08-05T15:21:50.440Z,96064.22
2022-08-05T15:24:16.895Z,96067.47
2022-08-05T15:26:43.343Z,96078.16
2022-08-05T15:29:10.428Z,96073.44
2022-08-05T15:31:36.932Z,96073.19
2022-08-05T15:34:19.438Z,96068.19
2022-08-05T15:36:49.900Z,96071.97
2022-08-05T15:41:03.891Z,96071.22
2022-08-05T15:42:50.049Z,96072.72
2022-08-05T15:44:49.346Z,96070.47
2022-08-05T15:47:16.346Z,96065.22
2022-08-05T15:49:53.371Z,96077.41
2022-08-05T15:52:51.782Z,96072.91
2022-08-05T15:55:16.147Z,96068.69
2022-08-05T15:57:45.052Z,96066.19
2022-08-05T16:00:12.488Z,96067.41
2022-08-05T16:02:43.345Z,96060.41
2022-08-05T16:05:11.269Z,96063.66
2022-08-05T16:07:37.888Z,96059.16
2022-08-05T16:10:12.880Z,96063.06
2022-08-05T16:12:39.752Z,96058.81
2022-08-05T16:15:06.816Z,96068.47
2022-08-05T16:17:36.221Z,96074.88
2022-08-05T16:20:11.275Z,96078.75
2022-08-05T16:22:38.907Z,96075.25
2022-08-05T16:25:09.811Z,96073.41
2022-08-05T16:28:00.339Z,96080.25
2022-08-05T16:30:26.208Z,96082.00
2022-08-05T16:32:54.143Z,96081.66
2022-08-05T16:35:27.887Z,96088.88
2022-08-05T16:38:16.199Z,96101.81
2022-08-05T16:40:51.894Z,96096.56
2022-08-05T16:43:28.222Z,96104.25
2022-08-05T16:46:04.965Z,96099.78
2022-08-05T16:48:35.435Z,96108.78
2022-08-05T16:51:02.206Z,96099.28
2022-08-05T16:53:32.134Z,96110.59
2022-08-05T16:56:17.211Z,96111.81
2022-08-05T16:58:43.831Z,96107.63
2022-08-05T17:01:10.883Z,96101.78
2022-08-05T17:03:37.739Z,96099.91
2022-08-05T17:06:06.128Z,96106.88
2022-08-05T17:08:52.423Z,96102.34
2022-08-05T17:11:25.385Z,96108.34
2022-08-05T17:14:00.270Z,96118.38
2022-08-05T17:16:36.462Z,96114.28
2022-08-05T17:19:07.709Z,96120.44
2022-08-05T17:21:37.027Z,96108.25
2022-08-05T17:24:13.736Z,96099.00
2022-08-05T17:26:52.589Z,96112.47
2022-08-05T17:29:22.245Z,96099.25
2022-08-05T17:31:58.653Z,96099.78
2022-08-05T17:34:30.238Z,96096.81
2022-08-05T17:36:58.566Z,96089.59
2022-08-05T17:39:33.192Z,96093.75
2022-08-05T17:42:18.115Z,96092.44
2022-08-05T17:44:50.167Z,96094.38
2022-08-05T17:47:22.974Z,96095.84
2022-08-05T17:49:59.715Z,96097.56
2022-08-05T17:52:29.946Z,96100.22
2022-08-05T17:54:56.429Z,96111.91
2022-08-05T17:57:22.952Z,96120.50
2022-08-05T18:00:03.752Z,96121.41
2022-08-05T18:02:33.118Z,96123.66
2022-08-05T18:05:06.341Z,96127.03
2022-08-05T18:07:41.301Z,96127.25
2022-08-05T18:10:11.423Z,96119.97
2022-08-05T18:12:40.480Z,96125.34
2022-08-05T18:15:08.792Z,96124.63
2022-08-05T18:17:58.668Z,96125.66
2022-08-05T18:20:29.328Z,96129.44
2022-08-05T18:23:04.876Z,96128.50
2022-08-05T18:25:38.752Z,96132.81
2022-08-05T18:28:06.128Z,96127.94
2022-08-05T18:30:33.899Z,96126.81
2022-08-05T18:33:01.439Z,96132.22
2022-08-05T18:36:01.294Z,96126.44
2022-08-05T18:38:19.304Z,96137.22
2022-08-05T18:41:53.118Z,96135.31
2022-08-05T18:43:42.671Z,96141.75
2022-08-05T18:46:15.954Z,96158.47
2022-08-05T18:48:46.842Z,96159.97
2022-08-05T18:52:06.651Z,96163.06
2022-08-05T18:54:18.862Z,96159.50
2022-08-05T18:56:51.283Z,96173.91
2022-08-05T18:59:43.409Z,96162.38
2022-08-05T19:02:11.297Z,96166.78
2022-08-05T19:05:01.162Z,96171.16
2022-08-05T19:07:29.987Z,96177.38
2022-08-05T19:10:12.245Z,96172.59
2022-08-05T19:12:38.809Z,96170.97
2022-08-05T19:15:05.898Z,96188.31
2022-08-05T19:18:08.058Z,96185.19
2022-08-05T19:20:41.384Z,96178.44
2022-08-05T19:23:22.586Z,96187.34
2022-08-05T19:26:01.878Z,96189.91
2022-08-05T19:28:32.976Z,96186.34
2022-08-05T19:31:00.889Z,96193.44
2022-08-05T19:33:35.749Z,96190.94
2022-08-05T19:36:06.377Z,96199.69
2022-08-05T19:38:33.437Z,96189.19
2022-08-05T19:41:02.233Z,96198.22
2022-08-05T19:44:05.531Z,96187.13
2022-08-05T19:46:30.260Z,96201.56
2022-08-05T19:48:57.497Z,96194.22
2022-08-05T19:52:04.589Z,96195.41
2022-08-05T19:54:26.635Z,96203.84
2022-08-05T19:56:57.860Z,96203.09
2022-08-05T19:59:55.268Z,96212.72
2022-08-05T20:02:12.771Z,96218.63
2022-08-05T20:04:42.817Z,96222.06
2022-08-05T20:07:10.277Z,96218.75
2022-08-05T20:09:54.143Z,96220.44
2022-08-05T20:12:23.737Z,96225.56
2022-08-05T20:14:52.469Z,96228.41
2022-08-05T20:17:23.269Z,96225.53
2022-08-05T20:19:50.747Z,96231.09
2022-08-05T20:22:23.945Z,96228.97
2022-08-05T20:24:53.787Z,96236.47
2022-08-05T20:27:21.026Z,96240.53
2022-08-05T20:29:58.315Z,96241.22
2022-08-05T20:32:25.224Z,96251.63
2022-08-05T20:34:51.856Z,96241.66
2022-08-05T20:38:05.398Z,96241.78
2022-08-05T20:40:05.520Z,96234.25
2022-08-05T20:42:33.279Z,96238.16
2022-08-05T20:44:59.745Z,96240.47
2022-08-05T20:47:31.737Z,96223.78
2022-08-05T20:49:58.927Z,96234.25
2022-08-05T20:52:25.748Z,96242.81
2022-08-05T20:54:59.844Z,96239.31
2022-08-05T20:57:43.364Z,96251.34
2022-08-05T21:00:34.906Z,96254.72
2022-08-05T21:03:06.236Z,96257.13
2022-08-05T21:05:47.824Z,96267.00
2022-08-05T21:08:26.472Z,96263.16
2022-08-05T21:10:54.863Z,96283.34
2022-08-05T21:13:36.734Z,96301.34
2022-08-05T21:16:11.619Z,96310.53
2022-08-05T21:18:38.541Z,96310.53
2022-08-05T21:21:11.537Z,96308.50
2022-08-05T21:23:38.973Z,96321.56
2022-08-05T21:26:12.141Z,96326.09
2022-08-05T21:28:40.189Z,96322.09
2022-08-05T21:31:14.650Z,96338.66
2022-08-05T21:33:43.076Z,96343.22
2022-08-05T21:36:14.128Z,96358.31
2022-08-05T21:38:54.394Z,96366.41
2022-08-05T21:41:20.973Z,96374.22
2022-08-05T21:44:01.672Z,96382.53
2022-08-05T21:46:31.475Z,96395.72
2022-08-05T21:49:00.822Z,96416.13
2022-08-05T21:52:22.496Z,96414.31
2022-08-05T21:54:55.166Z,96434.91
2022-08-05T21:57:31.336Z,96446.78
2022-08-05T22:00:06.102Z,96444.97
2022-08-05T22:02:33.749Z,96443.69
2022-08-05T22:05:00.263Z,96441.44
2022-08-05T22:07:40.469Z,96450.09
2022-08-05T22:10:14.883Z,96444.47
2022-08-05T22:12:44.707Z,96449.19
2022-08-05T22:15:16.614Z,96436.31
2022-08-05T22:18:01.182Z,96443.53
2022-08-05T22:20:27.844Z,96442.00
2022-08-05T22:23:16.927Z,96438.22
2022-08-05T22:26:09.633Z,96412.38
2022-08-05T22:28:38.221Z,96416.63
2022-08-05T22:31:05.884Z,96408.03
2022-08-05T22:33:57.880Z,96418.63
2022-08-05T22:36:19.370Z,96407.63
2022-08-05T22:38:51.439Z,96407.28
2022-08-05T22:41:26.504Z,96400.50
2022-08-05T22:44:08.191Z,96401.28
2022-08-05T22:46:40.236Z,96396.03
2022-08-05T22:49:23.058Z,96381.19
2022-08-05T22:52:06.482Z,96378.88
2022-08-05T22:54:35.516Z,96376.53
2022-08-05T22:57:02.837Z,96381.47
2022-08-05T22:59:43.639Z,96381.78
2022-08-05T23:02:16.930Z,96386.00
2022-08-05T23:04:52.070Z,96386.34
2022-08-05T23:07:22.156Z,96396.72
2022-08-05T23:09:58.335Z,96395.19
2022-08-05T23:12:32.439Z,96395.00
2022-08-05T23:15:03.330Z,96396.47
2022-08-05T23:17:34.419Z,96400.19
2022-08-05T23:20:16.368Z,96412.00
2022-08-05T23:22:47.837Z,96408.72
2022-08-05T23:25:50.868Z,96428.94
2022-08-05T23:28:06.854Z,96432.38
2022-08-05T23:30:40.417Z,96439.66
2022-08-05T23:33:16.022Z,96437.84
2022-08-05T23:35:50.063Z,96445.88
2022-08-05T23:38:16.928Z,96451.09
2022-08-05T23:40:50.271Z,96468.75
2022-08-05T23:43:25.747Z,96483.59
2022-08-05T23:46:21.353Z,96499.13
2022-08-05T23:49:00.865Z,96499.66
2022-08-05T23:51:53.743Z,96507.28
2022-08-05T23:54:29.992Z,96511.91
2022-08-05T23:57:03.355Z,96530.97
